Terminal Aerodrome Forecast
Issued by NWS

Home | Current Version | Previous Version | Text Only | Print | Product List | Glossary On
Versions: 1 2 3 4 5 6 7 8 9 10 11 12 13 14 15 16 17
000
FTUS42 KTAE 270541
TAFECP
TAF
KECP 270541Z 2706/2806 00000KT 3SM BR FEW007
      TEMPO 2706/2710 1/2SM FG VV003
     FM271000 00000KT 1SM BR BKN003
     FM271500 14007KT P6SM SCT025
     FM271800 19011KT P6SM SCT040
     FM280000 19006KT P6SM OVC250=

USA.gov is the U.S. government's official web portal to all federal, state and local government web resources and services.